createdAt,value
2023-02-11T00:00:20.072Z,85.85
2023-02-11T00:02:47.991Z,96.57
2023-02-11T00:05:15.092Z,98.30
2023-02-11T00:07:41.545Z,94.95
2023-02-11T00:10:08.269Z,83.65
2023-02-11T00:12:35.459Z,94.63
2023-02-11T00:15:01.949Z,76.95
2023-02-11T00:17:28.406Z,87.30
2023-02-11T00:19:54.869Z,76.25
2023-02-11T00:22:21.459Z,78.57
2023-02-11T00:24:47.946Z,94.38
2023-02-11T00:27:14.391Z,78.10
2023-02-11T00:29:40.807Z,93.43
2023-02-11T00:32:08.894Z,68.45
2023-02-11T00:34:36.139Z,69.07
2023-02-11T00:37:02.940Z,85.43
2023-02-11T00:39:29.466Z,105.57
2023-02-11T00:41:56.013Z,76.68
2023-02-11T00:44:22.434Z,70.72
2023-02-11T00:46:48.854Z,92.63
2023-02-11T00:49:15.399Z,64.78
2023-02-11T00:51:42.121Z,80.45
2023-02-11T00:54:08.576Z,75.68
2023-02-11T00:56:35.039Z,68.20
2023-02-11T00:59:01.457Z,64.32
2023-02-11T01:01:28.051Z,67.85
2023-02-11T01:03:54.491Z,71.40
2023-02-11T01:06:22.885Z,65.70
2023-02-11T01:08:49.317Z,88.07
2023-02-11T01:11:18.509Z,45.25
2023-02-11T01:13:45.554Z,57.67
2023-02-11T01:16:12.528Z,78.15
2023-02-11T01:18:39.335Z,72.80
2023-02-11T01:21:06.097Z,55.75
2023-02-11T01:23:32.655Z,71.03
2023-02-11T01:25:59.392Z,53.10
2023-02-11T01:28:29.374Z,58.00
2023-02-11T01:30:56.105Z,81.80
2023-02-11T01:33:22.654Z,46.40
2023-02-11T01:35:49.881Z,55.03
2023-02-11T01:38:17.925Z,64.03
2023-02-11T01:40:53.017Z,62.65
2023-02-11T01:43:19.630Z,51.67
2023-02-11T01:45:49.404Z,71.47
2023-02-11T01:48:20.128Z,58.92
2023-02-11T01:50:49.984Z,73.75
2023-02-11T01:53:35.574Z,58.92
2023-02-11T01:56:21.225Z,62.45
2023-02-11T01:58:48.983Z,59.08
2023-02-11T02:01:17.322Z,52.40
2023-02-11T02:03:44.542Z,66.93
2023-02-11T02:06:16.617Z,64.80
2023-02-11T02:08:55.357Z,75.95
2023-02-11T02:11:21.937Z,46.53
2023-02-11T02:13:49.538Z,64.18
2023-02-11T02:16:17.966Z,76.68
2023-02-11T02:19:03.340Z,70.07
2023-02-11T02:21:32.652Z,79.35
2023-02-11T02:24:01.790Z,69.53
2023-02-11T02:26:43.265Z,62.78
2023-02-11T02:29:35.960Z,51.55
2023-02-11T02:32:14.446Z,69.90
2023-02-11T02:34:44.547Z,56.08
2023-02-11T02:37:19.832Z,84.90
2023-02-11T02:39:48.804Z,60.30
2023-02-11T02:42:16.076Z,73.30
2023-02-11T02:44:48.200Z,74.65
2023-02-11T02:47:14.674Z,55.13
2023-02-11T02:49:41.108Z,62.28
2023-02-11T02:52:16.496Z,63.08
2023-02-11T02:54:48.807Z,85.45
2023-02-11T02:57:21.069Z,70.25
2023-02-11T03:00:10.779Z,73.88
2023-02-11T03:02:42.311Z,68.60
2023-02-11T03:05:17.395Z,60.03
2023-02-11T03:07:46.817Z,73.22
2023-02-11T03:10:22.194Z,58.70
2023-02-11T03:12:49.568Z,86.43
2023-02-11T03:15:17.676Z,69.72
2023-02-11T03:17:45.861Z,69.43
2023-02-11T03:20:14.480Z,54.95
2023-02-11T03:22:56.729Z,64.07
2023-02-11T03:25:27.434Z,57.50
2023-02-11T03:27:57.680Z,73.82
2023-02-11T03:30:30.270Z,59.83
2023-02-11T03:33:03.169Z,68.50
2023-02-11T03:35:35.013Z,47.28
2023-02-11T03:38:06.803Z,49.40
2023-02-11T03:40:36.636Z,58.75
2023-02-11T03:43:05.856Z,64.10
2023-02-11T03:45:32.876Z,65.30
2023-02-11T03:48:12.866Z,45.05
2023-02-11T03:50:40.206Z,55.08
2023-02-11T03:53:07.792Z,61.47
2023-02-11T03:55:36.942Z,51.20
2023-02-11T03:58:03.531Z,55.78
2023-02-11T04:00:31.047Z,62.17
2023-02-11T04:02:57.495Z,62.17
2023-02-11T04:05:23.950Z,55.60
2023-02-11T04:07:50.392Z,64.68
2023-02-11T04:10:16.999Z,57.75
2023-02-11T04:12:43.446Z,84.68
2023-02-11T04:15:09.967Z,61.28
2023-02-11T04:17:36.382Z,66.80
2023-02-11T04:20:03.373Z,44.55
2023-02-11T04:22:30.271Z,66.28
2023-02-11T04:24:56.803Z,60.28
2023-02-11T04:27:23.590Z,68.47
2023-02-11T04:29:50.084Z,72.57
2023-02-11T04:32:16.536Z,56.05
2023-02-11T04:34:42.974Z,65.90
2023-02-11T04:37:09.520Z,71.13
2023-02-11T04:39:35.980Z,49.83
2023-02-11T04:42:02.512Z,46.67
2023-02-11T04:44:29.027Z,80.85
2023-02-11T04:46:55.443Z,73.60
2023-02-11T04:49:21.979Z,54.10
2023-02-11T04:51:49.635Z,77.97
2023-02-11T04:54:16.655Z,60.88
2023-02-11T04:56:43.258Z,71.55
2023-02-11T04:59:09.782Z,62.08
2023-02-11T05:01:36.271Z,55.38
2023-02-11T05:04:02.768Z,59.20
2023-02-11T05:06:29.314Z,79.97
2023-02-11T05:08:55.733Z,76.78
2023-02-11T05:11:23.164Z,59.30
2023-02-11T05:13:49.674Z,70.90
2023-02-11T05:16:16.921Z,69.72
2023-02-11T05:18:43.937Z,88.75
2023-02-11T05:21:14.923Z,70.47
2023-02-11T05:23:41.805Z,68.18
2023-02-11T05:26:08.755Z,53.13
2023-02-11T05:28:35.607Z,76.82
2023-02-11T05:31:02.081Z,60.72
2023-02-11T05:33:28.819Z,56.17
2023-02-11T05:36:01.702Z,76.82
2023-02-11T05:38:28.197Z,61.88
2023-02-11T05:40:54.840Z,78.63
2023-02-11T05:43:21.390Z,69.55
2023-02-11T05:45:47.772Z,68.22
2023-02-11T05:48:14.496Z,56.40
2023-02-11T05:50:41.129Z,106.20
2023-02-11T05:53:07.658Z,49.20
2023-02-11T05:55:34.500Z,51.88
2023-02-11T05:58:00.916Z,79.10
2023-02-11T06:00:27.606Z,82.95
2023-02-11T06:02:54.149Z,76.50
2023-02-11T06:05:20.696Z,65.68
2023-02-11T06:07:47.171Z,81.22
2023-02-11T06:10:13.638Z,68.30
2023-02-11T06:12:40.110Z,73.47
2023-02-11T06:15:06.721Z,61.95
2023-02-11T06:17:33.837Z,57.72
2023-02-11T06:20:01.130Z,81.43
2023-02-11T06:22:27.584Z,68.05
2023-02-11T06:25:01.430Z,83.57
2023-02-11T06:27:28.411Z,67.05
2023-02-11T06:29:54.869Z,67.80
2023-02-11T06:32:42.342Z,69.10
2023-02-11T06:35:10.060Z,58.50
2023-02-11T06:37:38.143Z,59.78
2023-02-11T06:40:04.741Z,59.60
2023-02-11T06:42:31.215Z,66.50
2023-02-11T06:44:57.640Z,79.35
2023-02-11T06:47:24.055Z,66.47
2023-02-11T06:49:50.543Z,73.55
2023-02-11T06:52:17.173Z,64.43
2023-02-11T06:54:43.570Z,99.13
2023-02-11T06:57:10.080Z,69.93
2023-02-11T06:59:36.519Z,55.25
2023-02-11T07:02:03.012Z,64.45
2023-02-11T07:04:29.532Z,74.55
2023-02-11T07:06:55.946Z,83.30
2023-02-11T07:09:22.419Z,64.22
2023-02-11T07:11:48.818Z,77.65
2023-02-11T07:14:15.355Z,61.83
2023-02-11T07:16:41.759Z,85.03
2023-02-11T07:19:08.294Z,90.40
2023-02-11T07:21:35.114Z,66.20
2023-02-11T07:24:01.880Z,73.85
2023-02-11T07:26:29.216Z,83.85
2023-02-11T07:28:55.660Z,84.88
2023-02-11T07:31:23.492Z,81.60
2023-02-11T07:33:51.288Z,96.28
2023-02-11T07:36:17.780Z,77.65
2023-02-11T07:38:44.506Z,77.07
2023-02-11T07:41:12.034Z,74.03
2023-02-11T07:43:39.237Z,73.18
2023-02-11T07:46:06.595Z,78.55
2023-02-11T07:48:33.010Z,90.38
2023-02-11T07:51:25.812Z,84.78
2023-02-11T07:53:52.730Z,112.72
2023-02-11T07:56:20.180Z,89.80
2023-02-11T07:58:46.597Z,100.38
2023-02-11T08:01:14.548Z,141.38
2023-02-11T08:03:42.831Z,92.40
2023-02-11T08:06:13.234Z,82.50
2023-02-11T08:08:40.204Z,97.10
2023-02-11T08:11:10.851Z,83.10
2023-02-11T08:13:37.598Z,90.50
2023-02-11T08:16:04.540Z,112.82
2023-02-11T08:18:31.431Z,94.05
2023-02-11T08:21:03.405Z,100.53
2023-02-11T08:23:29.801Z,94.55
2023-02-11T08:25:56.285Z,89.05
2023-02-11T08:28:22.787Z,105.72
2023-02-11T08:30:49.598Z,125.80
2023-02-11T08:33:16.266Z,94.15
2023-02-11T08:35:42.787Z,88.40
2023-02-11T08:38:09.508Z,93.00
2023-02-11T08:40:36.040Z,89.35
2023-02-11T08:43:02.432Z,100.05
2023-02-11T08:45:28.971Z,88.43
2023-02-11T08:47:55.380Z,100.88
2023-02-11T08:50:22.088Z,102.75
2023-02-11T08:52:48.513Z,130.52
2023-02-11T08:55:14.986Z,106.15
2023-02-11T08:57:41.394Z,108.45
2023-02-11T09:00:08.271Z,109.68
2023-02-11T09:02:34.772Z,85.97
2023-02-11T09:05:01.346Z,85.47
2023-02-11T09:07:28.229Z,95.15
2023-02-11T09:09:54.748Z,100.20
2023-02-11T09:12:21.243Z,86.80
2023-02-11T09:14:47.736Z,111.90
2023-02-11T09:17:14.223Z,87.13
2023-02-11T09:19:40.631Z,82.22
2023-02-11T09:22:07.176Z,98.65
2023-02-11T09:24:33.590Z,93.78
2023-02-11T09:27:00.090Z,86.40
2023-02-11T09:29:26.670Z,118.35
2023-02-11T09:31:53.160Z,93.85
2023-02-11T09:34:19.683Z,95.20
2023-02-11T09:36:46.119Z,126.85
2023-02-11T09:39:14.310Z,88.53
2023-02-11T09:41:40.776Z,92.80
2023-02-11T09:44:08.316Z,103.55
2023-02-11T09:46:36.595Z,100.72
2023-02-11T09:49:04.772Z,96.15
2023-02-11T09:51:50.073Z,112.35
2023-02-11T09:54:27.611Z,109.97
2023-02-11T09:56:54.065Z,128.27
2023-02-11T09:59:20.713Z,114.47
2023-02-11T10:01:50.142Z,104.70
2023-02-11T10:04:16.611Z,116.38
2023-02-11T10:06:45.357Z,127.47
2023-02-11T10:09:21.576Z,112.72
2023-02-11T10:11:48.042Z,117.68
2023-02-11T10:14:40.243Z,118.93
2023-02-11T10:17:25.369Z,114.38
2023-02-11T10:20:12.127Z,115.32
2023-02-11T10:22:44.317Z,98.28
2023-02-11T10:25:24.643Z,118.05
2023-02-11T10:27:52.158Z,132.65
2023-02-11T10:30:21.538Z,114.85
2023-02-11T10:32:51.099Z,128.15
2023-02-11T10:35:18.976Z,126.63
2023-02-11T10:37:45.491Z,125.35
2023-02-11T10:40:13.740Z,129.35
2023-02-11T10:42:42.137Z,149.40
2023-02-11T10:45:17.647Z,125.45
2023-02-11T10:47:44.275Z,117.50
2023-02-11T10:50:22.886Z,114.72
2023-02-11T10:52:49.458Z,146.35
2023-02-11T10:55:18.181Z,133.73
2023-02-11T10:57:58.732Z,127.03
2023-02-11T11:00:42.272Z,127.97
2023-02-11T11:03:18.537Z,136.52
2023-02-11T11:05:52.779Z,136.73
2023-02-11T11:08:19.616Z,150.75
2023-02-11T11:10:47.694Z,139.43
2023-02-11T11:13:23.175Z,133.00
2023-02-11T11:16:06.577Z,185.95
2023-02-11T11:18:33.078Z,146.88
2023-02-11T11:21:00.616Z,153.73
2023-02-11T11:23:27.999Z,135.18
2023-02-11T11:26:03.629Z,148.40
2023-02-11T11:28:31.541Z,137.15
2023-02-11T11:30:59.434Z,141.95
2023-02-11T11:33:28.049Z,133.48
2023-02-11T11:35:57.457Z,146.80
2023-02-11T11:38:24.603Z,146.63
2023-02-11T11:41:09.924Z,164.10
2023-02-11T11:43:37.676Z,141.60
2023-02-11T11:46:06.275Z,139.75
2023-02-11T11:48:39.770Z,140.88
2023-02-11T11:53:41.747Z,145.00
2023-02-11T11:56:21.996Z,146.82
2023-02-11T11:58:49.114Z,186.80
2023-02-11T12:01:31.130Z,155.40
2023-02-11T12:04:17.063Z,162.15
2023-02-11T12:06:44.083Z,172.35
2023-02-11T12:09:27.001Z,153.55
2023-02-11T12:12:12.289Z,145.57
2023-02-11T12:14:38.684Z,167.27
2023-02-11T12:17:14.281Z,159.18
2023-02-11T12:19:47.538Z,134.65
2023-02-11T12:22:25.581Z,141.95
2023-02-11T12:24:59.002Z,170.00
2023-02-11T12:27:36.141Z,136.63
2023-02-11T12:30:05.710Z,130.27
2023-02-11T12:32:33.423Z,147.98
2023-02-11T12:35:09.019Z,154.52
2023-02-11T12:37:42.272Z,136.38
2023-02-11T12:40:11.468Z,142.13
2023-02-11T12:43:16.494Z,133.05
2023-02-11T12:45:49.608Z,136.48
2023-02-11T12:48:16.157Z,156.60
2023-02-11T12:50:50.266Z,150.55
2023-02-11T12:53:19.951Z,117.28
2023-02-11T12:55:48.818Z,160.43
2023-02-11T12:58:18.887Z,134.63
2023-02-11T13:00:46.876Z,162.23
2023-02-11T13:03:18.964Z,137.48
2023-02-11T13:05:57.347Z,127.45
2023-02-11T13:08:35.676Z,139.70
2023-02-11T13:11:22.424Z,119.25
2023-02-11T13:13:57.337Z,140.32
2023-02-11T13:16:35.728Z,126.32
2023-02-11T13:19:11.079Z,133.85
2023-02-11T13:22:01.051Z,111.13
2023-02-11T13:24:46.823Z,142.40
2023-02-11T13:27:13.273Z,136.43
2023-02-11T13:29:56.130Z,126.03
2023-02-11T13:32:22.564Z,133.57
2023-02-11T13:34:54.280Z,138.80
2023-02-11T13:37:22.038Z,139.30
2023-02-11T13:39:59.269Z,156.35
2023-02-11T13:42:25.740Z,138.10
2023-02-11T13:44:52.434Z,152.48
2023-02-11T13:47:34.889Z,130.05
2023-02-11T13:50:02.430Z,130.65
2023-02-11T13:52:30.283Z,147.27
2023-02-11T13:55:19.770Z,137.73
2023-02-11T13:58:06.201Z,144.00
2023-02-11T14:00:35.739Z,151.98
2023-02-11T14:03:30.015Z,164.10
2023-02-11T14:06:27.700Z,117.50
2023-02-11T14:09:07.033Z,142.70
2023-02-11T14:11:33.456Z,148.38
2023-02-11T14:14:18.821Z,118.38
2023-02-11T14:17:04.664Z,145.88
2023-02-11T14:19:33.066Z,135.85
2023-02-11T14:22:06.421Z,129.45
2023-02-11T14:24:32.894Z,109.65
2023-02-11T14:27:01.879Z,112.10
2023-02-11T14:29:34.090Z,123.10
2023-02-11T14:32:00.652Z,122.15
2023-02-11T14:34:30.897Z,135.30
2023-02-11T14:37:10.679Z,140.90
2023-02-11T14:39:56.962Z,110.55
2023-02-11T14:42:26.614Z,136.70
2023-02-11T14:44:54.799Z,137.55
2023-02-11T14:47:23.901Z,123.55
2023-02-11T14:49:50.627Z,122.43
2023-02-11T14:52:30.536Z,142.43
2023-02-11T14:55:17.977Z,141.48
2023-02-11T14:57:45.749Z,149.43
2023-02-11T15:00:22.490Z,100.85
2023-02-11T15:02:49.208Z,142.60
2023-02-11T15:05:17.442Z,127.00
2023-02-11T15:07:51.563Z,117.43
2023-02-11T15:10:20.962Z,145.23
2023-02-11T15:12:50.249Z,149.82
2023-02-11T15:15:17.103Z,124.82
2023-02-11T15:17:43.885Z,126.47
2023-02-11T15:20:18.722Z,111.57
2023-02-11T15:22:46.177Z,147.88
2023-02-11T15:25:17.245Z,129.43
2023-02-11T15:27:47.468Z,142.00
2023-02-11T15:30:23.230Z,132.65
2023-02-11T15:32:51.122Z,188.10
2023-02-11T15:35:18.080Z,126.80
2023-02-11T15:37:44.839Z,257.80
2023-02-11T15:40:12.944Z,132.15
2023-02-11T15:42:52.193Z,123.32
2023-02-11T15:45:26.061Z,118.35
2023-02-11T15:47:53.945Z,127.72
2023-02-11T15:50:25.063Z,139.52
2023-02-11T15:52:52.098Z,144.27
2023-02-11T15:55:19.067Z,125.40
2023-02-11T15:57:46.771Z,157.98
2023-02-11T16:00:21.249Z,105.82
2023-02-11T16:02:49.667Z,139.95
2023-02-11T16:05:29.658Z,129.25
2023-02-11T16:07:56.958Z,243.55
2023-02-11T16:10:28.471Z,128.48
2023-02-11T16:13:15.257Z,118.15
2023-02-11T16:15:43.739Z,103.13
2023-02-11T16:18:38.414Z,123.15
2023-02-11T16:21:06.519Z,215.05
2023-02-11T16:23:38.258Z,260.40
2023-02-11T16:26:08.793Z,147.70
2023-02-11T16:28:36.378Z,124.65
2023-02-11T16:31:03.791Z,113.15
2023-02-11T16:33:30.447Z,143.50
2023-02-11T16:35:57.789Z,131.90
2023-02-11T16:38:24.214Z,118.43
2023-02-11T16:40:51.022Z,124.53
2023-02-11T16:43:18.748Z,93.85
2023-02-11T16:45:45.388Z,122.20
2023-02-11T16:48:14.138Z,109.22
2023-02-11T16:50:43.595Z,99.55
2023-02-11T16:53:10.361Z,77.70
2023-02-11T16:55:36.799Z,144.30
2023-02-11T16:58:03.214Z,96.60
2023-02-11T17:00:29.992Z,123.55
2023-02-11T17:02:56.467Z,113.28
2023-02-11T17:05:23.439Z,81.72
2023-02-11T17:07:49.939Z,107.20
2023-02-11T17:10:17.749Z,98.07
2023-02-11T17:12:44.252Z,122.55
2023-02-11T17:15:10.976Z,94.93
2023-02-11T17:17:37.390Z,175.88
2023-02-11T17:20:03.942Z,112.18
2023-02-11T17:22:30.406Z,120.43
2023-02-11T17:24:57.140Z,219.30
2023-02-11T17:27:23.547Z,88.93
2023-02-11T17:29:50.001Z,109.10
2023-02-11T17:32:16.578Z,126.47
2023-02-11T17:34:43.086Z,119.28
2023-02-11T17:37:09.667Z,95.28
2023-02-11T17:39:39.539Z,144.02
2023-02-11T17:42:06.223Z,175.73
2023-02-11T17:44:33.396Z,139.32
2023-02-11T17:46:59.825Z,149.23
2023-02-11T17:49:27.593Z,230.27
2023-02-11T17:51:54.071Z,204.98
2023-02-11T17:54:20.653Z,140.40
2023-02-11T17:56:49.285Z,160.73
2023-02-11T17:59:17.324Z,111.32
2023-02-11T18:01:43.748Z,127.43
2023-02-11T18:04:12.621Z,73.05
2023-02-11T18:06:39.121Z,85.22
2023-02-11T18:09:05.620Z,94.15
2023-02-11T18:11:33.330Z,85.72
2023-02-11T18:14:00.305Z,83.60
2023-02-11T18:16:28.958Z,99.32
2023-02-11T18:18:56.100Z,147.48
2023-02-11T18:21:22.840Z,109.05
2023-02-11T18:23:49.672Z,119.07
2023-02-11T18:26:17.365Z,66.38
2023-02-11T18:28:45.808Z,112.88
2023-02-11T18:31:13.860Z,158.20
2023-02-11T18:33:43.261Z,112.78
2023-02-11T18:36:10.824Z,89.90
2023-02-11T18:38:37.416Z,87.72
2023-02-11T18:41:04.501Z,94.78
2023-02-11T18:43:34.435Z,75.95
2023-02-11T18:46:01.526Z,129.82
2023-02-11T18:48:28.242Z,96.07
2023-02-11T18:50:55.201Z,119.63
2023-02-11T18:53:22.158Z,123.88
2023-02-11T18:55:48.816Z,83.35
2023-02-11T18:58:15.606Z,94.50
2023-02-11T19:00:43.647Z,85.80
2023-02-11T19:03:10.090Z,76.40
2023-02-11T19:05:43.586Z,61.95
2023-02-11T19:10:39.575Z,71.07
2023-02-11T19:13:05.992Z,84.85
2023-02-11T19:15:32.780Z,77.65
2023-02-11T19:17:59.219Z,83.85
2023-02-11T19:20:25.629Z,74.95
2023-02-11T19:22:52.042Z,95.55
2023-02-11T19:25:18.968Z,113.38
2023-02-11T19:27:45.403Z,89.97
2023-02-11T19:30:12.038Z,73.70
2023-02-11T19:32:38.541Z,77.15
2023-02-11T19:35:05.461Z,105.15
2023-02-11T19:37:32.016Z,92.82
2023-02-11T19:39:58.430Z,84.57
2023-02-11T19:42:27.556Z,82.63
2023-02-11T19:44:54.196Z,116.13
2023-02-11T19:47:26.740Z,70.30
2023-02-11T19:49:54.901Z,97.72
2023-02-11T19:52:21.376Z,65.07
2023-02-11T19:54:48.080Z,84.80
2023-02-11T19:57:14.644Z,80.45
2023-02-11T19:59:41.173Z,103.18
2023-02-11T20:02:08.072Z,65.43
2023-02-11T20:04:34.708Z,70.55
2023-02-11T20:07:01.446Z,150.38
2023-02-11T20:09:29.089Z,57.42
2023-02-11T20:11:55.535Z,79.57
2023-02-11T20:14:21.969Z,70.05
2023-02-11T20:16:50.076Z,71.43
2023-02-11T20:19:18.257Z,67.05
2023-02-11T20:21:47.065Z,90.65
2023-02-11T20:24:13.888Z,58.97
2023-02-11T20:26:42.377Z,117.75
2023-02-11T20:29:08.963Z,66.03
2023-02-11T20:31:35.668Z,72.70
2023-02-11T20:34:02.275Z,89.72
2023-02-11T20:36:31.966Z,160.63
2023-02-11T20:38:59.207Z,121.85
2023-02-11T20:41:26.917Z,64.72
2023-02-11T20:43:54.486Z,63.03
2023-02-11T20:46:23.005Z,67.00
2023-02-11T20:48:49.850Z,104.53
2023-02-11T20:51:18.281Z,81.32
2023-02-11T20:53:48.829Z,63.00
2023-02-11T20:56:16.021Z,90.07
2023-02-11T20:58:42.436Z,67.13
2023-02-11T21:01:14.101Z,71.78
2023-02-11T21:03:40.934Z,80.03
2023-02-11T21:06:08.041Z,43.53
2023-02-11T21:08:34.553Z,42.50
2023-02-11T21:11:01.900Z,58.85
2023-02-11T21:13:28.443Z,50.53
2023-02-11T21:15:55.905Z,65.38
2023-02-11T21:18:23.381Z,127.70
2023-02-11T21:20:49.971Z,52.25
2023-02-11T21:23:16.435Z,39.72
2023-02-11T21:25:42.866Z,48.92
2023-02-11T21:28:09.300Z,40.15
2023-02-11T21:30:37.534Z,41.40
2023-02-11T21:33:04.005Z,80.35
2023-02-11T21:35:33.995Z,36.28
2023-02-11T21:38:00.708Z,47.17
2023-02-11T21:40:29.037Z,48.03
2023-02-11T21:42:56.343Z,93.50
2023-02-11T21:45:23.706Z,46.88
2023-02-11T21:47:50.171Z,60.65
2023-02-11T21:50:16.912Z,35.80
2023-02-11T21:52:43.488Z,47.63
2023-02-11T21:55:10.263Z,51.40
2023-02-11T21:57:36.668Z,20.48
2023-02-11T22:00:03.896Z,13.10
2023-02-11T22:02:32.039Z,40.03
2023-02-11T22:04:58.543Z,40.25
2023-02-11T22:07:27.428Z,37.00
2023-02-11T22:09:55.618Z,62.00
2023-02-11T22:12:22.860Z,25.65
2023-02-11T22:14:49.404Z,49.40
2023-02-11T22:17:15.810Z,49.83
2023-02-11T22:19:42.369Z,25.73
2023-02-11T22:22:09.378Z,22.77
2023-02-11T22:24:35.952Z,63.13
2023-02-11T22:27:03.126Z,26.27
2023-02-11T22:29:29.566Z,29.08
2023-02-11T22:31:56.054Z,42.35
2023-02-11T22:34:22.554Z,59.45
2023-02-11T22:36:49.037Z,60.47
2023-02-11T22:39:16.258Z,44.20
2023-02-11T22:41:43.572Z,25.02
2023-02-11T22:44:10.084Z,25.33
2023-02-11T22:46:36.971Z,42.47
2023-02-11T22:49:04.276Z,39.88
2023-02-11T22:51:30.780Z,19.58
2023-02-11T22:54:01.431Z,70.88
2023-02-11T22:56:28.729Z,38.80
2023-02-11T22:58:58.935Z,50.58
2023-02-11T23:01:25.552Z,43.63
2023-02-11T23:03:52.130Z,41.95
2023-02-11T23:06:18.601Z,42.63
2023-02-11T23:08:45.072Z,54.75
2023-02-11T23:11:13.261Z,24.92
2023-02-11T23:13:40.496Z,25.80
2023-02-11T23:16:08.144Z,50.53
2023-02-11T23:18:35.453Z,32.03
2023-02-11T23:21:03.448Z,30.65
2023-02-11T23:23:29.891Z,41.90
2023-02-11T23:25:56.630Z,34.72
2023-02-11T23:28:23.291Z,38.25
2023-02-11T23:30:49.832Z,66.10
2023-02-11T23:33:16.261Z,25.15
2023-02-11T23:35:42.729Z,27.40
2023-02-11T23:38:09.128Z,37.45
2023-02-11T23:40:35.575Z,24.90
2023-02-11T23:43:02.106Z,42.90
2023-02-11T23:45:28.604Z,36.30
2023-02-11T23:47:55.062Z,46.00
2023-02-11T23:50:21.553Z,39.50
2023-02-11T23:52:48.037Z,43.40
2023-02-11T23:55:14.474Z,41.83
2023-02-11T23:57:40.983Z,34.50
